Terminal Aerodrome Forecast
Issued by NWS

Current Version | Previous Version | Graphics & Text | Print | Product List | Glossary On
Versions: 1 2 3 4 5 6 7 8 9 10 11 12 13 14 15 16 17 18 19 20 21 22 23 24
945
FTUS41 KILN 161730
TAFLCK
TAF
KLCK 161730Z 1618/1718 34012G21KT P6SM SCT017 BKN023 BKN035
     FM162000 35011G19KT P6SM BKN025
     FM170300 35004KT P6SM BKN025
     FM171400 17004KT P6SM VCSH SCT050 OVC090=

USA.gov is the U.S. government's official web portal to all federal, state and local government web resources and services.